createdAt,value
2019-03-04T00:00:21.169Z,23.53
2019-03-04T00:02:56.873Z,23.60
2019-03-04T00:05:31.132Z,26.13
2019-03-04T00:08:04.847Z,23.37
2019-03-04T00:10:40.497Z,23.53
2019-03-04T00:13:13.466Z,24.57
2019-03-04T00:15:52.037Z,24.03
2019-03-04T00:18:27.488Z,24.63
2019-03-04T00:21:08.501Z,25.37
2019-03-04T00:23:44.675Z,24.43
2019-03-04T00:26:26.406Z,23.20
2019-03-04T00:29:01.218Z,23.17
2019-03-04T00:31:40.060Z,23.60
2019-03-04T00:34:16.587Z,22.73
2019-03-04T00:36:53.667Z,23.50
2019-03-04T00:39:32.909Z,22.30
2019-03-04T00:42:08.818Z,21.37
2019-03-04T00:44:48.546Z,21.37
2019-03-04T00:47:26.801Z,23.33
2019-03-04T00:50:03.167Z,21.73
2019-03-04T00:52:38.291Z,21.57
2019-03-04T00:55:38.127Z,21.67
2019-03-04T00:58:17.530Z,19.57
2019-03-04T01:01:00.626Z,20.40
2019-03-04T01:03:40.020Z,21.20
2019-03-04T01:06:20.655Z,19.90
2019-03-04T01:08:56.334Z,21.83
2019-03-04T01:11:43.551Z,20.33
2019-03-04T01:14:32.513Z,20.07
2019-03-04T01:17:08.748Z,20.80
2019-03-04T01:19:43.709Z,19.80
2019-03-04T01:22:23.924Z,21.00
2019-03-04T01:25:00.845Z,20.90
2019-03-04T01:27:38.251Z,19.47
2019-03-04T01:30:16.912Z,20.40
2019-03-04T01:32:55.489Z,19.67
2019-03-04T01:35:31.442Z,18.53
2019-03-04T01:38:11.683Z,17.50
2019-03-04T01:40:43.666Z,20.33
2019-03-04T01:43:18.435Z,20.53
2019-03-04T01:45:51.562Z,18.90
2019-03-04T01:48:43.697Z,19.20
2019-03-04T01:51:21.191Z,18.90
2019-03-04T01:53:56.741Z,20.57
2019-03-04T01:56:31.260Z,18.63
2019-03-04T01:59:14.484Z,21.37
2019-03-04T02:01:49.928Z,19.57
2019-03-04T02:04:31.065Z,19.23
2019-03-04T02:07:06.136Z,18.53
2019-03-04T02:09:40.921Z,21.50
2019-03-04T02:12:19.674Z,19.70
2019-03-04T02:15:01.178Z,20.17
2019-03-04T02:17:33.448Z,20.50
2019-03-04T02:20:10.025Z,20.17
2019-03-04T02:22:44.643Z,20.60
2019-03-04T02:25:21.824Z,20.03
2019-03-04T02:27:58.849Z,21.77
2019-03-04T02:30:35.081Z,20.40
2019-03-04T02:33:17.993Z,19.87
2019-03-04T02:35:53.043Z,20.07
2019-03-04T02:38:28.273Z,22.60
2019-03-04T02:41:09.599Z,22.93
2019-03-04T02:43:48.471Z,21.70
2019-03-04T02:46:26.349Z,21.83
2019-03-04T02:49:07.346Z,20.63
2019-03-04T02:51:46.760Z,21.83
2019-03-04T02:54:18.109Z,22.60
2019-03-04T02:56:55.727Z,22.07
2019-03-04T02:59:26.434Z,22.50
2019-03-04T03:02:11.707Z,23.80
2019-03-04T03:04:53.017Z,25.23
2019-03-04T03:07:29.218Z,24.57
2019-03-04T03:10:03.854Z,25.50
2019-03-04T03:12:41.292Z,24.83
2019-03-04T03:15:18.790Z,26.73
2019-03-04T03:17:58.533Z,25.70
2019-03-04T03:20:37.506Z,25.87
2019-03-04T03:23:14.098Z,27.13
2019-03-04T03:25:49.823Z,26.63
2019-03-04T03:28:24.710Z,25.80
2019-03-04T03:31:02.374Z,27.47
2019-03-04T03:33:32.865Z,26.00
2019-03-04T03:36:09.404Z,27.30
2019-03-04T03:38:47.992Z,28.43
2019-03-04T03:41:21.532Z,27.30
2019-03-04T03:43:57.798Z,26.53
2019-03-04T03:46:38.363Z,25.67
2019-03-04T03:49:12.482Z,26.70
2019-03-04T03:51:48.827Z,27.10
2019-03-04T03:54:26.513Z,26.27
2019-03-04T03:57:05.610Z,27.73
2019-03-04T03:59:42.828Z,27.43
2019-03-04T04:02:16.536Z,26.30
2019-03-04T04:04:54.178Z,28.03
2019-03-04T04:07:28.238Z,27.20
2019-03-04T04:10:20.287Z,27.70
2019-03-04T04:12:58.182Z,27.77
2019-03-04T04:15:42.210Z,26.73
2019-03-04T04:18:19.721Z,25.13
2019-03-04T04:21:03.845Z,25.47
2019-03-04T04:23:49.349Z,24.20
2019-03-04T04:26:31.564Z,24.17
2019-03-04T04:29:09.042Z,25.30
2019-03-04T04:31:48.583Z,24.83
2019-03-04T04:34:38.362Z,24.80
2019-03-04T04:37:13.192Z,27.30
2019-03-04T04:39:51.298Z,25.50
2019-03-04T04:42:37.391Z,25.70
2019-03-04T04:45:10.422Z,26.07
2019-03-04T04:47:46.989Z,25.57
2019-03-04T04:50:27.555Z,23.90
2019-03-04T04:53:05.969Z,24.70
2019-03-04T04:55:41.617Z,25.17
2019-03-04T04:58:19.927Z,22.70
2019-03-04T05:00:51.850Z,23.87
2019-03-04T05:03:28.769Z,23.93
2019-03-04T05:06:01.142Z,22.83
2019-03-04T05:08:34.577Z,23.03
2019-03-04T05:11:12.875Z,23.03
2019-03-04T05:13:55.935Z,23.17
2019-03-04T05:16:32.024Z,22.70
2019-03-04T05:19:09.223Z,22.50
2019-03-04T05:21:55.941Z,23.23
2019-03-04T05:24:29.688Z,21.60
2019-03-04T05:27:13.974Z,21.90
2019-03-04T05:29:56.549Z,22.83
2019-03-04T05:32:30.898Z,21.63
2019-03-04T05:35:04.911Z,21.20
2019-03-04T05:37:40.250Z,21.00
2019-03-04T05:40:14.949Z,20.93
2019-03-04T05:42:49.367Z,21.00
2019-03-04T05:45:31.369Z,19.23
2019-03-04T05:48:08.966Z,18.63
2019-03-04T05:50:53.519Z,20.00
2019-03-04T05:53:32.243Z,19.10
2019-03-04T05:56:06.350Z,18.13
2019-03-04T05:58:46.811Z,19.03
2019-03-04T06:01:34.130Z,19.93
2019-03-04T06:04:23.717Z,18.47
2019-03-04T06:07:18.233Z,17.97
2019-03-04T06:09:52.312Z,18.20
2019-03-04T06:12:42.176Z,17.57
2019-03-04T06:15:18.255Z,19.07
2019-03-04T06:17:51.797Z,18.67
2019-03-04T06:20:38.358Z,18.80
2019-03-04T06:23:25.272Z,18.37
2019-03-04T06:26:10.135Z,18.00
2019-03-04T06:28:45.135Z,18.77
2019-03-04T06:31:25.942Z,17.70
2019-03-04T06:34:10.701Z,17.83
2019-03-04T06:36:47.315Z,17.73
2019-03-04T06:39:26.606Z,16.87
2019-03-04T06:42:06.263Z,17.13
2019-03-04T06:44:45.789Z,15.37
2019-03-04T06:47:24.614Z,16.13
2019-03-04T06:50:01.900Z,15.80
2019-03-04T06:52:42.076Z,15.00
2019-03-04T06:56:16.500Z,14.53
2019-03-04T06:59:00.526Z,15.60
2019-03-04T07:01:42.115Z,16.40
2019-03-04T07:04:24.112Z,14.33
2019-03-04T07:07:02.833Z,15.17
2019-03-04T07:09:41.451Z,15.63
2019-03-04T07:12:15.155Z,14.23
2019-03-04T07:14:55.221Z,14.10
2019-03-04T07:17:38.026Z,13.67
2019-03-04T07:20:28.213Z,13.70
2019-03-04T07:23:10.006Z,13.53
2019-03-04T07:25:53.951Z,12.87
2019-03-04T07:28:35.415Z,13.53
2019-03-04T07:31:14.463Z,13.63
2019-03-04T07:33:53.753Z,11.37
2019-03-04T07:36:35.001Z,12.93
2019-03-04T07:39:28.342Z,12.40
2019-03-04T07:42:11.256Z,11.50
2019-03-04T07:44:49.571Z,12.60
2019-03-04T07:47:24.810Z,11.87
2019-03-04T07:50:01.588Z,12.17
2019-03-04T07:52:43.788Z,12.13
2019-03-04T07:55:15.564Z,12.10
2019-03-04T07:57:52.020Z,12.37
2019-03-04T08:00:24.960Z,12.60
2019-03-04T08:03:00.961Z,11.90
2019-03-04T08:05:34.250Z,12.03
2019-03-04T08:08:16.341Z,12.60
2019-03-04T08:11:25.690Z,11.93
2019-03-04T08:14:10.349Z,12.17
2019-03-04T08:16:48.205Z,11.73
2019-03-04T08:19:30.536Z,11.57
2019-03-04T08:22:06.716Z,12.37
2019-03-04T08:24:49.944Z,12.10
2019-03-04T08:27:23.135Z,12.30
2019-03-04T08:30:07.794Z,11.97
2019-03-04T08:32:39.859Z,11.03
2019-03-04T08:35:20.006Z,11.43
2019-03-04T08:37:57.096Z,11.00
2019-03-04T08:40:39.143Z,10.67
2019-03-04T08:43:21.025Z,7.20
2019-03-04T08:45:53.258Z,6.53
2019-03-04T08:48:27.166Z,6.60
2019-03-04T08:51:02.247Z,6.50
2019-03-04T08:53:34.780Z,6.43
2019-03-04T08:56:06.213Z,6.20
2019-03-04T08:58:44.822Z,6.80
2019-03-04T09:01:20.396Z,6.87
2019-03-04T09:03:52.357Z,7.30
2019-03-04T09:06:30.872Z,8.10
2019-03-04T09:09:09.182Z,8.00
2019-03-04T09:11:47.186Z,7.10
2019-03-04T09:14:21.710Z,7.20
2019-03-04T09:16:56.334Z,7.50
2019-03-04T09:19:29.013Z,7.30
2019-03-04T09:22:00.259Z,7.27
2019-03-04T09:24:32.119Z,7.60
2019-03-04T09:27:11.374Z,8.23
2019-03-04T09:29:46.807Z,8.50
2019-03-04T09:32:25.721Z,8.90
2019-03-04T09:35:09.727Z,8.67
2019-03-04T09:37:44.498Z,8.40
2019-03-04T09:40:18.776Z,8.90
2019-03-04T09:42:56.783Z,9.33
2019-03-04T09:45:38.737Z,8.73
2019-03-04T09:48:14.877Z,9.53
2019-03-04T09:50:53.507Z,9.40
2019-03-04T09:53:39.388Z,8.83
2019-03-04T09:56:12.316Z,8.83
2019-03-04T09:58:53.134Z,8.83
2019-03-04T10:01:47.216Z,9.60
2019-03-04T10:05:19.597Z,8.90
2019-03-04T10:08:18.172Z,9.70
2019-03-04T10:11:14.738Z,8.80
2019-03-04T10:14:37.575Z,8.33
2019-03-04T10:17:52.906Z,8.83
2019-03-04T10:21:24.686Z,9.07
2019-03-04T10:24:38.188Z,8.70
2019-03-04T10:28:03.760Z,8.80
2019-03-04T10:31:03.420Z,9.50
2019-03-04T10:34:27.278Z,9.77
2019-03-04T10:37:53.388Z,9.90
2019-03-04T10:41:16.354Z,11.30
2019-03-04T10:44:25.284Z,10.80
2019-03-04T10:47:02.461Z,11.23
2019-03-04T10:49:44.012Z,10.80
2019-03-04T10:52:17.247Z,11.40
2019-03-04T10:54:56.249Z,11.03
2019-03-04T10:57:29.058Z,9.23
2019-03-04T11:00:03.478Z,9.00
2019-03-04T11:02:38.716Z,9.43
2019-03-04T11:05:15.639Z,9.60
2019-03-04T11:07:53.291Z,10.07
2019-03-04T11:10:26.073Z,10.57
2019-03-04T11:13:05.102Z,9.53
2019-03-04T11:15:40.442Z,9.90
2019-03-04T11:18:17.832Z,9.10
2019-03-04T11:21:00.800Z,9.40
2019-03-04T11:23:38.454Z,9.73
2019-03-04T11:26:12.545Z,9.67
2019-03-04T11:28:45.756Z,9.30
2019-03-04T11:31:20.479Z,9.10
2019-03-04T11:33:55.308Z,9.60
2019-03-04T11:36:30.072Z,9.97
2019-03-04T11:40:06.136Z,10.20
2019-03-04T11:42:38.099Z,11.33
2019-03-04T11:45:18.763Z,10.90
2019-03-04T11:47:52.473Z,10.20
2019-03-04T11:50:28.698Z,9.70
2019-03-04T11:53:08.136Z,10.10
2019-03-04T11:55:41.766Z,10.30
2019-03-04T11:58:18.284Z,10.10
2019-03-04T12:00:56.309Z,10.00
2019-03-04T12:03:29.018Z,10.60
2019-03-04T12:06:07.197Z,13.47
2019-03-04T12:08:40.826Z,11.23
2019-03-04T12:11:14.119Z,10.73
2019-03-04T12:13:48.334Z,14.30
2019-03-04T12:16:32.660Z,10.40
2019-03-04T12:19:05.057Z,11.10
2019-03-04T12:21:40.532Z,10.63
2019-03-04T12:24:18.787Z,10.07
2019-03-04T12:26:52.100Z,10.20
2019-03-04T12:29:26.977Z,11.33
2019-03-04T12:32:20.985Z,10.70
2019-03-04T12:35:04.034Z,11.00
2019-03-04T12:37:40.788Z,10.80
2019-03-04T12:40:19.205Z,10.87
2019-03-04T12:43:05.725Z,11.47
2019-03-04T12:45:41.021Z,10.50
2019-03-04T12:48:15.065Z,10.30
2019-03-04T12:50:48.021Z,10.33
2019-03-04T12:53:36.836Z,11.00
2019-03-04T12:56:00.852Z,11.07
2019-03-04T12:58:33.762Z,11.33
2019-03-04T13:01:09.205Z,10.83
2019-03-04T13:03:43.919Z,11.13
2019-03-04T13:06:17.138Z,11.87
2019-03-04T13:08:54.718Z,11.17
2019-03-04T13:11:28.637Z,11.00
2019-03-04T13:14:10.942Z,11.20
2019-03-04T13:16:47.181Z,9.97
2019-03-04T13:19:39.543Z,10.00
2019-03-04T13:22:21.675Z,11.70
2019-03-04T13:24:52.470Z,9.63
2019-03-04T13:27:27.500Z,9.67
2019-03-04T13:30:00.284Z,9.60
2019-03-04T13:32:42.699Z,10.37
2019-03-04T13:35:24.701Z,10.30
2019-03-04T13:37:57.377Z,10.93
2019-03-04T13:40:37.935Z,10.63
2019-03-04T13:43:11.391Z,12.20
2019-03-04T13:45:53.604Z,12.20
2019-03-04T13:48:31.640Z,10.43
2019-03-04T13:51:13.129Z,10.70
2019-03-04T13:53:48.929Z,11.13
2019-03-04T13:56:37.559Z,10.83
2019-03-04T13:59:13.649Z,11.20
2019-03-04T14:01:50.470Z,10.57
2019-03-04T14:04:39.818Z,10.90
2019-03-04T14:07:17.945Z,10.70
2019-03-04T14:09:58.612Z,10.53
2019-03-04T14:12:39.265Z,11.30
2019-03-04T14:15:16.154Z,11.37
2019-03-04T14:18:06.721Z,10.70
2019-03-04T14:20:40.941Z,10.30
2019-03-04T14:23:21.903Z,10.73
2019-03-04T14:25:59.848Z,10.70
2019-03-04T14:28:41.432Z,10.90
2019-03-04T14:31:25.789Z,10.50
2019-03-04T14:36:48.244Z,11.23
2019-03-04T14:39:24.621Z,11.30
2019-03-04T14:42:00.466Z,10.47
2019-03-04T14:44:36.800Z,9.80
2019-03-04T14:47:25.933Z,11.63
2019-03-04T14:50:09.239Z,11.57
2019-03-04T14:52:42.617Z,10.97
2019-03-04T14:55:23.797Z,11.20
2019-03-04T14:58:08.558Z,11.47
2019-03-04T15:00:53.628Z,11.63
2019-03-04T15:03:30.950Z,11.57
2019-03-04T15:06:08.213Z,11.33
2019-03-04T15:08:55.533Z,10.97
2019-03-04T15:11:45.363Z,12.07
2019-03-04T15:14:36.723Z,13.50
2019-03-04T15:17:28.146Z,12.43
2019-03-04T15:20:09.678Z,10.90
2019-03-04T15:22:51.176Z,12.37
2019-03-04T15:25:35.406Z,10.30
2019-03-04T15:28:47.724Z,12.53
2019-03-04T15:31:26.296Z,12.03
2019-03-04T15:34:06.956Z,12.00
2019-03-04T15:36:47.499Z,11.47
2019-03-04T15:39:24.221Z,11.17
2019-03-04T15:42:06.492Z,11.60
2019-03-04T15:44:45.283Z,11.00
2019-03-04T15:47:20.006Z,11.77
2019-03-04T15:50:05.435Z,11.83
2019-03-04T15:52:33.235Z,11.47
2019-03-04T15:55:12.548Z,11.33
2019-03-04T15:57:51.909Z,12.90
2019-03-04T16:00:34.678Z,13.10
2019-03-04T16:03:19.488Z,11.33
2019-03-04T16:05:57.137Z,12.33
2019-03-04T16:08:43.920Z,12.50
2019-03-04T16:11:28.812Z,12.27
2019-03-04T16:14:14.496Z,13.80
2019-03-04T16:16:49.229Z,13.57
2019-03-04T16:19:25.180Z,13.50
2019-03-04T16:22:05.436Z,14.73
2019-03-04T16:24:51.182Z,14.90
2019-03-04T16:27:34.029Z,15.20
2019-03-04T16:30:07.245Z,15.20
2019-03-04T16:33:09.299Z,14.40
2019-03-04T16:35:49.336Z,13.77
2019-03-04T16:38:25.991Z,14.63
2019-03-04T16:41:01.469Z,14.27
2019-03-04T16:43:37.766Z,13.43
2019-03-04T16:46:10.197Z,14.13
2019-03-04T16:48:46.706Z,14.23
2019-03-04T16:51:22.529Z,14.00
2019-03-04T16:54:06.320Z,14.53
2019-03-04T16:56:44.323Z,14.40
2019-03-04T16:59:21.557Z,17.00
2019-03-04T17:01:57.206Z,14.67
2019-03-04T17:04:36.126Z,15.53
2019-03-04T17:07:42.094Z,17.20
2019-03-04T17:10:22.776Z,15.80
2019-03-04T17:13:03.646Z,13.60
2019-03-04T17:15:43.067Z,14.00
2019-03-04T17:18:24.756Z,14.00
2019-03-04T17:20:57.150Z,15.47
2019-03-04T17:23:38.000Z,14.37
2019-03-04T17:26:11.914Z,16.07
2019-03-04T17:28:52.171Z,13.63
2019-03-04T17:31:36.588Z,14.03
2019-03-04T17:34:18.076Z,14.40
2019-03-04T17:37:00.820Z,15.90
2019-03-04T17:39:38.933Z,17.43
2019-03-04T17:42:22.887Z,15.43
2019-03-04T17:45:04.427Z,16.30
2019-03-04T17:47:50.898Z,16.60
2019-03-04T17:50:32.793Z,17.03
2019-03-04T17:53:09.810Z,18.57
2019-03-04T17:55:50.070Z,17.10
2019-03-04T17:58:30.975Z,16.13
2019-03-04T18:01:06.358Z,17.43
2019-03-04T18:03:45.066Z,16.17
2019-03-04T18:06:20.299Z,17.10
2019-03-04T18:09:07.909Z,17.33
2019-03-04T18:11:44.057Z,15.23
2019-03-04T18:14:29.366Z,15.50
2019-03-04T18:17:08.498Z,17.37
2019-03-04T18:19:55.313Z,16.50
2019-03-04T18:22:27.777Z,18.90
2019-03-04T18:25:03.631Z,17.97
2019-03-04T18:27:59.533Z,19.83
2019-03-04T18:31:05.740Z,17.10
2019-03-04T18:34:07.068Z,17.73
2019-03-04T18:37:27.677Z,18.90
2019-03-04T18:40:33.710Z,18.50
2019-03-04T18:43:26.966Z,19.53
2019-03-04T18:46:33.019Z,18.93
2019-03-04T18:49:09.475Z,20.57
2019-03-04T18:52:01.821Z,16.67
2019-03-04T18:54:33.186Z,16.63
2019-03-04T18:57:08.937Z,18.27
2019-03-04T18:59:45.301Z,19.50
2019-03-04T19:02:23.919Z,16.90
2019-03-04T19:04:52.811Z,18.40
2019-03-04T19:07:32.042Z,16.97
2019-03-04T19:10:12.197Z,18.67
2019-03-04T19:12:52.839Z,22.97
2019-03-04T19:15:29.794Z,17.33
2019-03-04T19:18:12.757Z,17.47
2019-03-04T19:20:51.279Z,16.00
2019-03-04T19:23:26.341Z,18.20
2019-03-04T19:26:04.420Z,17.67
2019-03-04T19:28:54.918Z,17.87
2019-03-04T19:31:37.886Z,17.03
2019-03-04T19:34:18.300Z,17.80
2019-03-04T19:37:02.651Z,19.53
2019-03-04T19:39:41.986Z,15.63
2019-03-04T19:42:14.879Z,18.70
2019-03-04T19:44:48.573Z,17.13
2019-03-04T19:47:19.822Z,17.93
2019-03-04T19:49:59.668Z,15.50
2019-03-04T19:52:33.879Z,15.37
2019-03-04T19:55:09.639Z,16.00
2019-03-04T19:57:45.799Z,16.33
2019-03-04T20:00:32.094Z,16.20
2019-03-04T20:03:04.569Z,15.57
2019-03-04T20:05:38.990Z,16.83
2019-03-04T20:08:17.667Z,17.00
2019-03-04T20:10:56.633Z,17.83
2019-03-04T20:13:37.533Z,15.90
2019-03-04T20:16:18.738Z,17.63
2019-03-04T20:18:54.433Z,14.67
2019-03-04T20:21:29.982Z,17.50
2019-03-04T20:24:04.503Z,15.80
2019-03-04T20:26:38.509Z,16.97
2019-03-04T20:29:15.800Z,16.10
2019-03-04T20:31:50.878Z,17.90
2019-03-04T20:34:24.225Z,16.40
2019-03-04T20:37:07.046Z,16.47
2019-03-04T20:39:39.539Z,15.90
2019-03-04T20:42:16.101Z,16.00
2019-03-04T20:44:53.270Z,16.80
2019-03-04T20:47:27.389Z,16.33
2019-03-04T20:50:00.264Z,15.17
2019-03-04T20:52:37.858Z,15.93
2019-03-04T20:55:09.421Z,17.57
2019-03-04T20:57:43.113Z,15.10
2019-03-04T21:00:27.786Z,15.07
2019-03-04T21:03:01.123Z,15.80
2019-03-04T21:05:37.548Z,15.50
2019-03-04T21:08:13.802Z,17.53
2019-03-04T21:10:51.186Z,15.40
2019-03-04T21:13:35.006Z,13.60
2019-03-04T21:16:01.515Z,14.80
2019-03-04T21:18:35.577Z,14.73
2019-03-04T21:21:09.373Z,15.10
2019-03-04T21:23:40.823Z,14.87
2019-03-04T21:26:31.340Z,15.93
2019-03-04T21:30:05.991Z,14.27
2019-03-04T21:33:05.943Z,16.70
2019-03-04T21:36:08.162Z,15.30
2019-03-04T21:38:46.581Z,14.13
2019-03-04T21:41:42.088Z,14.33
2019-03-04T21:44:51.123Z,14.87
2019-03-04T21:47:37.442Z,13.10
2019-03-04T21:50:14.578Z,15.67
2019-03-04T21:53:24.293Z,16.90
2019-03-04T21:56:14.337Z,15.07
2019-03-04T21:58:58.383Z,16.47
2019-03-04T22:01:46.216Z,15.70
2019-03-04T22:04:24.969Z,15.60
2019-03-04T22:07:00.183Z,14.97
2019-03-04T22:09:38.591Z,17.90
2019-03-04T22:12:16.594Z,15.97
2019-03-04T22:14:52.411Z,15.87
2019-03-04T22:17:28.923Z,15.50
2019-03-04T22:20:09.017Z,15.73
2019-03-04T22:22:45.978Z,15.43
2019-03-04T22:25:20.282Z,16.47
2019-03-04T22:28:07.361Z,15.20
2019-03-04T22:30:49.398Z,16.17
2019-03-04T22:33:18.013Z,15.10
2019-03-04T22:35:53.245Z,16.27
2019-03-04T22:38:26.763Z,16.33
2019-03-04T22:41:13.517Z,14.80
2019-03-04T22:44:04.369Z,15.23
2019-03-04T22:46:40.989Z,15.50
2019-03-04T22:49:24.710Z,16.53
2019-03-04T22:51:58.225Z,14.70
2019-03-04T22:54:34.392Z,15.20
2019-03-04T22:57:15.769Z,14.83
2019-03-04T22:59:50.527Z,14.80
2019-03-04T23:02:32.923Z,13.93
2019-03-04T23:05:13.919Z,15.07
2019-03-04T23:07:53.828Z,14.53
2019-03-04T23:10:42.724Z,16.10
2019-03-04T23:13:52.847Z,16.17
2019-03-04T23:16:39.903Z,14.60
2019-03-04T23:19:15.303Z,15.73
2019-03-04T23:21:48.903Z,15.60
2019-03-04T23:24:34.383Z,14.20
2019-03-04T23:27:21.911Z,15.63
2019-03-04T23:30:05.341Z,13.93
2019-03-04T23:32:59.968Z,14.87
2019-03-04T23:35:48.467Z,15.67
2019-03-04T23:38:30.702Z,16.00
2019-03-04T23:41:06.184Z,14.97
2019-03-04T23:43:41.269Z,15.90
2019-03-04T23:46:15.736Z,16.87
2019-03-04T23:48:55.684Z,15.33
2019-03-04T23:51:28.665Z,15.23
2019-03-04T23:54:01.349Z,16.13
2019-03-04T23:56:35.665Z,14.20
2019-03-04T23:59:09.061Z,15.47
